createdAt,value
2023-07-09T00:02:59.837Z,100.00
2023-07-09T00:06:06.191Z,100.00
2023-07-09T00:09:18.493Z,100.00
2023-07-09T00:12:23.651Z,100.00
2023-07-09T00:15:29.317Z,100.00
2023-07-09T00:18:32.918Z,100.00
2023-07-09T00:21:37.052Z,100.00
2023-07-09T00:24:40.201Z,100.00
2023-07-09T00:27:49.475Z,100.00
2023-07-09T00:30:53.607Z,100.00
2023-07-09T00:33:57.633Z,100.00
2023-07-09T00:37:03.080Z,100.00
2023-07-09T00:40:11.143Z,100.00
2023-07-09T00:43:18.967Z,100.00
2023-07-09T00:47:21.217Z,100.00
2023-07-09T00:50:42.610Z,100.00
2023-07-09T00:53:53.476Z,100.00
2023-07-09T00:57:03.003Z,100.00
2023-07-09T01:00:14.505Z,100.00
2023-07-09T01:03:28.447Z,100.00
2023-07-09T01:06:36.442Z,100.00
2023-07-09T01:09:42.382Z,100.00
2023-07-09T01:12:48.429Z,100.00
2023-07-09T01:15:54.341Z,100.00
2023-07-09T01:18:57.475Z,100.00
2023-07-09T01:22:03.604Z,100.00
2023-07-09T01:25:11.091Z,100.00
2023-07-09T01:28:17.830Z,100.00
2023-07-09T01:31:21.972Z,100.00
2023-07-09T01:34:28.402Z,100.00
2023-07-09T01:37:35.192Z,100.00
2023-07-09T01:40:41.377Z,100.00
2023-07-09T01:43:51.015Z,100.00
2023-07-09T01:46:54.227Z,100.00
2023-07-09T01:49:58.536Z,100.00
2023-07-09T01:53:03.631Z,100.00
2023-07-09T01:56:08.669Z,100.00
2023-07-09T01:59:12.342Z,100.00
2023-07-09T02:02:19.996Z,100.00
2023-07-09T02:05:23.247Z,100.00
2023-07-09T02:08:34.135Z,100.00
2023-07-09T02:11:37.258Z,100.00
2023-07-09T02:14:42.034Z,100.00
2023-07-09T02:17:46.167Z,100.00
2023-07-09T02:20:52.347Z,100.00
2023-07-09T02:23:57.863Z,100.00
2023-07-09T02:27:11.191Z,100.00
2023-07-09T02:30:16.658Z,100.00
2023-07-09T02:33:21.734Z,100.00
2023-07-09T02:36:27.945Z,100.00
2023-07-09T02:39:32.617Z,100.00
2023-07-09T02:42:36.243Z,100.00
2023-07-09T02:45:39.583Z,100.00
2023-07-09T02:48:42.713Z,100.00
2023-07-09T02:51:46.306Z,100.00
2023-07-09T02:54:50.733Z,100.00
2023-07-09T02:57:54.132Z,100.00
2023-07-09T03:01:00.061Z,100.00
2023-07-09T03:04:04.873Z,100.00
2023-07-09T03:07:08.495Z,100.00
2023-07-09T03:10:15.967Z,100.00
2023-07-09T03:13:19.132Z,100.00
2023-07-09T03:16:22.632Z,100.00
2023-07-09T03:19:25.870Z,100.00
2023-07-09T03:22:28.911Z,100.00
2023-07-09T03:25:34.054Z,100.00
2023-07-09T03:28:37.462Z,100.00
2023-07-09T03:31:40.696Z,100.00
2023-07-09T03:34:43.882Z,100.00
2023-07-09T03:37:46.990Z,100.00
2023-07-09T03:40:53.932Z,100.00
2023-07-09T03:43:57.689Z,100.00
2023-07-09T03:47:00.929Z,100.00
2023-07-09T03:50:04.564Z,100.00
2023-07-09T03:53:07.749Z,100.00
2023-07-09T03:56:12.304Z,100.00
2023-07-09T03:59:17.430Z,100.00
2023-07-09T04:02:20.788Z,100.00
2023-07-09T04:05:26.766Z,100.00
2023-07-09T04:08:29.925Z,100.00
2023-07-09T04:11:35.102Z,100.00
2023-07-09T04:14:38.226Z,100.00
2023-07-09T04:17:41.931Z,100.00
2023-07-09T04:20:51.478Z,100.00
2023-07-09T04:23:54.784Z,100.00
2023-07-09T04:27:04.070Z,100.00
2023-07-09T04:30:09.948Z,100.00
2023-07-09T04:33:13.585Z,100.00
2023-07-09T04:36:16.731Z,100.00
2023-07-09T04:39:19.857Z,100.00
2023-07-09T04:42:26.688Z,100.00
2023-07-09T04:45:30.080Z,100.00
2023-07-09T04:48:35.407Z,100.00
2023-07-09T04:51:38.499Z,100.00
2023-07-09T04:54:44.522Z,100.00
2023-07-09T04:57:49.083Z,100.00
2023-07-09T05:00:54.459Z,100.00
2023-07-09T05:03:58.295Z,100.00
2023-07-09T05:07:01.967Z,100.00
2023-07-09T05:10:05.769Z,100.00
2023-07-09T05:13:11.481Z,100.00
2023-07-09T05:16:18.104Z,100.00
2023-07-09T05:19:21.665Z,100.00
2023-07-09T05:22:24.847Z,100.00
2023-07-09T05:25:28.191Z,100.00
2023-07-09T05:28:43.993Z,100.00
2023-07-09T05:31:47.319Z,100.00
2023-07-09T05:34:50.585Z,100.00
2023-07-09T05:37:54.876Z,100.00
2023-07-09T05:41:04.227Z,100.00
2023-07-09T05:44:10.295Z,100.00
2023-07-09T05:47:21.913Z,100.00
2023-07-09T05:50:29.794Z,100.00
2023-07-09T05:53:34.533Z,100.00
2023-07-09T05:56:37.901Z,100.00
2023-07-09T05:59:44.293Z,100.00
2023-07-09T06:02:47.698Z,100.00
2023-07-09T06:05:51.424Z,100.00
2023-07-09T06:08:55.838Z,100.00
2023-07-09T06:11:59.253Z,100.00
2023-07-09T06:15:04.030Z,100.00
2023-07-09T06:18:08.920Z,100.00
2023-07-09T06:21:14.960Z,100.00
2023-07-09T06:24:20.398Z,100.00
2023-07-09T06:27:23.835Z,100.00
2023-07-09T06:31:52.758Z,100.00
2023-07-09T06:41:03.585Z,100.00
2023-07-09T06:44:17.523Z,100.00
2023-07-09T06:47:25.993Z,97.53
2023-07-09T06:50:38.867Z,96.52
2023-07-09T06:53:54.894Z,100.00
2023-07-09T06:57:01.284Z,97.51
2023-07-09T07:00:09.700Z,99.54
2023-07-09T07:03:15.148Z,100.00
2023-07-09T07:06:21.502Z,100.00
2023-07-09T07:09:27.487Z,98.40
2023-07-09T07:12:47.861Z,100.00
2023-07-09T07:15:53.786Z,100.00
2023-07-09T07:18:58.457Z,99.44
2023-07-09T07:22:01.828Z,100.00
2023-07-09T07:25:15.684Z,100.00
2023-07-09T07:28:23.069Z,100.00
2023-07-09T07:31:29.420Z,98.89
2023-07-09T07:34:34.181Z,90.53
2023-07-09T07:37:39.381Z,94.25
2023-07-09T07:40:46.540Z,95.15
2023-07-09T07:43:49.964Z,93.29
2023-07-09T07:46:53.621Z,87.79
2023-07-09T07:50:20.882Z,89.17
2023-07-09T07:53:26.656Z,85.89
2023-07-09T07:56:29.896Z,83.40
2023-07-09T07:59:36.110Z,96.31
2023-07-09T08:02:49.620Z,92.77
2023-07-09T08:06:02.631Z,91.05
2023-07-09T08:09:06.587Z,86.27
2023-07-09T08:12:16.026Z,89.52
2023-07-09T08:15:22.239Z,87.85
2023-07-09T08:18:30.688Z,79.78
2023-07-09T08:21:35.394Z,88.29
2023-07-09T08:24:38.884Z,78.94
2023-07-09T08:27:44.095Z,84.93
2023-07-09T08:30:47.226Z,74.44
2023-07-09T08:33:50.482Z,76.96
2023-07-09T08:36:56.541Z,84.04
2023-07-09T08:40:17.566Z,73.41
2023-07-09T08:43:38.987Z,80.16
2023-07-09T08:47:04.204Z,82.15
2023-07-09T08:50:13.566Z,78.45
2023-07-09T08:54:17.223Z,73.16
2023-07-09T08:57:25.594Z,64.59
2023-07-09T09:00:32.733Z,64.65
2023-07-09T09:04:37.594Z,65.98
2023-07-09T09:13:46.380Z,57.94
2023-07-09T09:17:09.231Z,63.13
2023-07-09T09:20:29.750Z,61.47
2023-07-09T09:23:46.473Z,61.48
2023-07-09T09:26:57.127Z,57.29
2023-07-09T09:30:05.592Z,55.09
2023-07-09T09:33:17.409Z,53.08
2023-07-09T09:36:24.575Z,55.99
2023-07-09T09:39:59.103Z,58.79
2023-07-09T09:43:37.148Z,54.24
2023-07-09T09:46:47.854Z,52.18
2023-07-09T09:49:59.962Z,53.55
2023-07-09T09:53:11.965Z,57.18
2023-07-09T09:56:34.086Z,54.37
2023-07-09T09:59:57.578Z,49.57
2023-07-09T10:03:23.549Z,51.90
2023-07-09T10:06:41.167Z,55.12
2023-07-09T10:09:56.403Z,50.22
2023-07-09T10:13:17.498Z,52.07
2023-07-09T10:16:37.493Z,48.08
2023-07-09T10:19:57.970Z,50.90
2023-07-09T10:23:18.403Z,53.00
2023-07-09T10:26:40.441Z,54.70
2023-07-09T10:30:19.967Z,53.19
2023-07-09T10:33:36.721Z,49.94
2023-07-09T10:37:28.264Z,50.03
2023-07-09T10:40:45.122Z,50.87
2023-07-09T10:43:56.275Z,49.77
2023-07-09T10:47:29.356Z,46.90
2023-07-09T10:56:43.889Z,48.02
2023-07-09T10:59:59.266Z,48.36
2023-07-09T11:03:15.271Z,49.99
2023-07-09T11:06:27.624Z,46.79
2023-07-09T11:09:37.421Z,47.14
2023-07-09T11:12:52.277Z,47.94
2023-07-09T11:16:01.854Z,47.84
2023-07-09T11:19:19.241Z,45.55
2023-07-09T11:22:29.550Z,48.90
2023-07-09T11:26:03.737Z,48.34
2023-07-09T11:32:49.809Z,46.83
2023-07-09T11:35:56.103Z,44.20
2023-07-09T11:38:59.881Z,47.80
2023-07-09T11:47:12.698Z,45.19
2023-07-09T11:50:31.013Z,44.23
2023-07-09T11:53:43.083Z,42.83
2023-07-09T11:57:15.782Z,43.59
2023-07-09T12:00:19.853Z,46.22
2023-07-09T12:03:35.056Z,45.69
2023-07-09T12:06:43.701Z,41.42
2023-07-09T12:09:52.131Z,42.78
2023-07-09T12:13:05.012Z,43.22
2023-07-09T12:16:31.460Z,45.20
2023-07-09T12:19:36.174Z,44.02
2023-07-09T12:22:46.973Z,41.36
2023-07-09T12:25:55.203Z,42.15
2023-07-09T12:29:01.868Z,46.08
2023-07-09T12:32:18.796Z,40.21
2023-07-09T12:35:23.905Z,39.30
2023-07-09T12:38:31.088Z,38.65
2023-07-09T12:41:40.745Z,39.99
2023-07-09T12:44:44.632Z,39.98
2023-07-09T12:47:52.039Z,41.96
2023-07-09T12:50:59.617Z,44.07
2023-07-09T12:54:05.279Z,39.30
2023-07-09T12:57:21.978Z,37.19
2023-07-09T13:00:29.271Z,37.32
2023-07-09T13:03:36.202Z,37.94
2023-07-09T13:06:41.208Z,37.56
2023-07-09T13:09:50.428Z,36.14
2023-07-09T13:12:57.096Z,34.80
2023-07-09T13:16:06.195Z,36.40
2023-07-09T13:19:09.657Z,35.83
2023-07-09T13:22:19.490Z,35.92
2023-07-09T13:25:33.221Z,33.78
2023-07-09T13:28:46.661Z,36.69
2023-07-09T13:31:50.875Z,34.38
2023-07-09T13:34:54.056Z,32.88
2023-07-09T13:38:01.990Z,34.00
2023-07-09T13:41:16.087Z,33.58
2023-07-09T13:44:23.335Z,32.55
2023-07-09T13:47:27.456Z,33.32
2023-07-09T13:50:30.561Z,35.37
2023-07-09T13:53:35.006Z,31.86
2023-07-09T13:56:39.810Z,33.07
2023-07-09T13:59:44.454Z,30.93
2023-07-09T14:02:48.128Z,32.51
2023-07-09T14:05:51.880Z,31.55
2023-07-09T14:08:56.544Z,32.00
2023-07-09T14:11:59.798Z,31.09
2023-07-09T14:15:08.076Z,29.87
2023-07-09T14:18:18.676Z,31.83
2023-07-09T14:21:27.380Z,32.85
2023-07-09T14:24:37.920Z,32.38
2023-07-09T14:27:42.130Z,30.63
2023-07-09T14:30:46.632Z,32.07
2023-07-09T14:33:49.900Z,33.68
2023-07-09T14:36:56.217Z,31.71
2023-07-09T14:40:00.706Z,33.81
2023-07-09T14:43:06.886Z,32.39
2023-07-09T14:46:11.172Z,30.89
2023-07-09T14:49:14.336Z,31.37
2023-07-09T14:52:22.646Z,32.45
2023-07-09T14:55:32.538Z,34.63
2023-07-09T14:58:35.730Z,32.44
2023-07-09T15:01:45.254Z,31.13
2023-07-09T15:04:48.952Z,34.02
2023-07-09T15:07:53.185Z,33.52
2023-07-09T15:10:58.097Z,32.85
2023-07-09T15:14:01.347Z,33.77
2023-07-09T15:17:06.557Z,31.72
2023-07-09T15:20:16.043Z,31.30
2023-07-09T15:23:23.373Z,32.61
2023-07-09T15:26:27.991Z,32.21
2023-07-09T15:29:33.553Z,32.66
2023-07-09T15:32:40.254Z,32.77
2023-07-09T15:35:45.939Z,33.76
2023-07-09T15:38:49.185Z,32.73
2023-07-09T15:41:53.832Z,29.72
2023-07-09T15:44:56.895Z,35.47
2023-07-09T15:48:00.220Z,35.92
2023-07-09T15:51:11.940Z,35.77
2023-07-09T15:54:18.410Z,34.60
2023-07-09T15:57:36.636Z,34.04
2023-07-09T16:00:46.040Z,32.54
2023-07-09T16:03:52.545Z,35.24
2023-07-09T16:06:56.795Z,35.90
2023-07-09T16:09:59.995Z,33.33
2023-07-09T16:18:03.037Z,34.57
2023-07-09T16:21:07.370Z,34.61
2023-07-09T16:24:22.043Z,32.43
2023-07-09T16:27:27.274Z,34.65
2023-07-09T16:30:34.704Z,36.85
2023-07-09T16:33:39.273Z,34.10
2023-07-09T16:36:42.492Z,36.90
2023-07-09T16:39:50.281Z,34.45
2023-07-09T16:42:59.006Z,38.90
2023-07-09T16:51:42.293Z,39.66
2023-07-09T16:54:49.147Z,38.29
2023-07-09T16:58:05.582Z,38.32
2023-07-09T17:08:45.449Z,40.19
2023-07-09T17:12:45.491Z,44.88
2023-07-09T17:15:51.903Z,43.03
2023-07-09T17:18:55.279Z,51.41
2023-07-09T17:22:06.525Z,41.51
2023-07-09T17:25:35.733Z,44.50
2023-07-09T17:28:52.747Z,50.42
2023-07-09T17:43:57.908Z,52.38
2023-07-09T17:48:36.958Z,49.21
2023-07-09T17:51:55.796Z,51.03
2023-07-09T17:55:19.370Z,50.10
2023-07-09T17:59:25.809Z,57.96
2023-07-09T18:03:15.289Z,52.76
2023-07-09T18:06:52.068Z,53.51
2023-07-09T18:15:31.308Z,63.87
2023-07-09T18:35:45.737Z,58.12
2023-07-09T18:43:33.103Z,61.09
2023-07-09T19:04:24.258Z,66.35
2023-07-09T19:07:34.462Z,68.87
2023-07-09T19:11:30.097Z,72.34
2023-07-09T19:14:48.991Z,69.25
2023-07-09T19:17:57.694Z,68.62
2023-07-09T19:21:06.308Z,71.19
2023-07-09T19:24:22.372Z,73.52
2023-07-09T19:39:02.097Z,74.58
2023-07-09T19:53:37.848Z,70.27
2023-07-09T19:56:53.931Z,73.95
2023-07-09T20:00:02.577Z,75.71
2023-07-09T20:04:08.222Z,72.20
2023-07-09T20:17:31.617Z,65.19
2023-07-09T20:22:05.375Z,67.48
2023-07-09T20:25:41.917Z,66.09
2023-07-09T20:28:48.747Z,66.48
2023-07-09T20:32:08.077Z,67.09
2023-07-09T20:35:22.652Z,65.42
2023-07-09T20:38:32.632Z,66.40
2023-07-09T20:41:36.536Z,68.26
2023-07-09T20:45:11.448Z,68.19
2023-07-09T20:48:22.683Z,64.32
2023-07-09T20:51:34.204Z,62.20
2023-07-09T20:54:48.608Z,63.76
2023-07-09T20:58:03.883Z,68.33
2023-07-09T21:01:48.727Z,65.05
2023-07-09T21:04:56.297Z,62.75
2023-07-09T21:08:11.651Z,61.23
2023-07-09T21:11:23.858Z,66.54
2023-07-09T21:14:29.932Z,62.43
2023-07-09T21:17:36.316Z,64.15
2023-07-09T21:20:41.290Z,63.12
2023-07-09T21:23:51.316Z,62.56
2023-07-09T21:27:18.140Z,62.46
2023-07-09T21:30:46.417Z,67.91
2023-07-09T21:33:54.096Z,66.42
2023-07-09T21:37:19.400Z,68.21
2023-07-09T21:40:30.627Z,64.49
2023-07-09T21:43:39.518Z,68.88
2023-07-09T21:46:54.400Z,68.75
2023-07-09T21:50:20.830Z,70.08
2023-07-09T21:56:40.356Z,66.49
2023-07-09T21:59:50.151Z,68.22
2023-07-09T22:03:03.068Z,73.09
2023-07-09T22:06:11.253Z,72.27
2023-07-09T22:09:29.881Z,74.80
2023-07-09T22:12:41.857Z,76.98
2023-07-09T22:15:49.279Z,79.80
2023-07-09T22:18:56.548Z,75.29
2023-07-09T22:22:10.932Z,75.54
2023-07-09T22:25:24.357Z,76.51
2023-07-09T22:28:32.623Z,79.75
2023-07-09T22:31:36.407Z,83.50
2023-07-09T22:34:41.746Z,85.87
2023-07-09T22:37:47.371Z,90.01
2023-07-09T22:40:55.854Z,90.95
2023-07-09T22:44:14.051Z,82.75
2023-07-09T22:47:24.222Z,86.40
2023-07-09T22:50:43.464Z,84.33
2023-07-09T22:53:49.305Z,85.43
2023-07-09T22:57:02.029Z,85.52
2023-07-09T23:00:13.527Z,87.29
2023-07-09T23:03:21.587Z,90.97
2023-07-09T23:06:32.872Z,88.55
2023-07-09T23:09:48.539Z,84.16
2023-07-09T23:13:14.012Z,84.42
2023-07-09T23:16:27.150Z,95.36
2023-07-09T23:19:37.304Z,87.81
2023-07-09T23:22:41.349Z,88.33
2023-07-09T23:25:46.200Z,85.77
2023-07-09T23:28:50.841Z,88.53
2023-07-09T23:32:16.749Z,87.24
2023-07-09T23:35:23.423Z,86.00
2023-07-09T23:38:33.748Z,79.43
2023-07-09T23:41:40.760Z,82.85
2023-07-09T23:44:54.771Z,82.96
2023-07-09T23:48:05.961Z,83.31
2023-07-09T23:51:18.476Z,85.78
2023-07-09T23:54:21.982Z,83.08
2023-07-09T23:57:32.639Z,77.89
